Iraklio, Greece

1:48 AM EEST on July 05, 2015 (GMT +0300)
PEFKAKIA | | Change Station
CLOSE
Current Station
Personal Weather Station
Location: Nea Ionia, ATTIKI
Elevation: 459 ft
Nearby Weather Stations

Elev 459 ft 38.04 °N, 23.76 °E | Updated 2 days ago

Clear
Clear
73 °F
Feels Like 73 °F
N
6
Wind Variable Wind from NNW
Gusts mph

Today
High -- | Low -- °F
--% Chance of Precip.
Yesterday
High -- | Low -- °F
Precip. -- in
6:07 AM 8:51 PM
Waning Gibbous, 89% visible
Pressure 30.06 in
Visibility -9999.0 miles
Clouds
Dew Point 54 °F
Humidity 53%
Rainfall in
Snow Depth Not available.
UV Not available.
Pollen Not available.
Air Quality Not available.
Flu Activity Not available.
METAR LGEL 042220Z 33006KT CAVOK 22/10 Q1018

More Conditions Fewer Conditions

Pressure 30.06 in
Visibility -9999.0 miles
Clouds
Dew Point 54 °F
Humidity 53%
Rainfall in
Snow Depth Not available.
UV Not available.
Pollen Not available.
Air Quality Not available.
Flu Activity Not available.
METAR LGEL 042220Z 33006KT CAVOK 22/10 Q1018

More Conditions Fewer Conditions

10-Day Weather Forecast

×

Almanac

Astronomy

Jul. 05, 2015 Rise Set
Actual Time
Civil Twilight
Nautical Twilight
Astronomical Twilight
Moon
Length of Visible Light
Length of Day
Tomorrow will be .
, % of the Moon is Illuminated

Today's Extremes

Country Highs Country Lows

Community

WunderPhotos

Upload Photos

1,835,105 photos uploaded!

WunderBlogs® & News

Nearby

Air Quality

  Air Quality AQ Index Pollutant
Not available.

Snow Depth

Station Depth Elevation

Earthquake Activity

City Distance Mag. Time & Date
Minimum magnitude displayed is 2.5.

Coastal Water Temperatures

Place Temperature

Stations

Nearby Weather Stations

Station Location Temp. Windchill Dew Point Humidity Wind Precip. Elev Updated Type